sensor_id;sensor_type;location;lat;lon;timestamp;temperature;humidity
1447;DHT22;717;51.522;7.266;2023-07-20T00:01:39;23.30;99.90
1447;DHT22;717;51.522;7.266;2023-07-20T00:06:45;23.30;99.90
1447;DHT22;717;51.522;7.266;2023-07-20T00:09:14;23.30;99.90
1447;DHT22;717;51.522;7.266;2023-07-20T00:11:49;23.20;99.90
1447;DHT22;717;51.522;7.266;2023-07-20T00:14:19;23.20;99.90
1447;DHT22;717;51.522;7.266;2023-07-20T00:16:50;23.20;99.90
1447;DHT22;717;51.522;7.266;2023-07-20T00:19:23;23.20;99.90
1447;DHT22;717;51.522;7.266;2023-07-20T00:21:56;23.20;99.90
1447;DHT22;717;51.522;7.266;2023-07-20T00:24:26;23.20;99.90
1447;DHT22;717;51.522;7.266;2023-07-20T00:26:57;23.20;99.90
1447;DHT22;717;51.522;7.266;2023-07-20T00:29:28;23.20;99.90
1447;DHT22;717;51.522;7.266;2023-07-20T00:31:58;23.20;99.90
1447;DHT22;717;51.522;7.266;2023-07-20T00:34:29;23.20;99.90
1447;DHT22;717;51.522;7.266;2023-07-20T00:37:02;23.20;99.90
1447;DHT22;717;51.522;7.266;2023-07-20T00:39:32;23.20;99.90
1447;DHT22;717;51.522;7.266;2023-07-20T00:42:02;23.20;99.90
1447;DHT22;717;51.522;7.266;2023-07-20T00:44:32;23.20;99.90
1447;DHT22;717;51.522;7.266;2023-07-20T00:47:02;23.20;99.90
1447;DHT22;717;51.522;7.266;2023-07-20T00:49:33;23.20;99.90
1447;DHT22;717;51.522;7.266;2023-07-20T00:52:07;23.20;99.90
1447;DHT22;717;51.522;7.266;2023-07-20T00:54:37;23.20;99.90
1447;DHT22;717;51.522;7.266;2023-07-20T00:57:08;23.20;99.90
1447;DHT22;717;51.522;7.266;2023-07-20T00:59:39;23.20;99.90
1447;DHT22;717;51.522;7.266;2023-07-20T01:02:09;23.10;99.90
1447;DHT22;717;51.522;7.266;2023-07-20T01:04:40;23.10;99.90
1447;DHT22;717;51.522;7.266;2023-07-20T01:07:14;23.10;99.90
1447;DHT22;717;51.522;7.266;2023-07-20T01:09:51;23.10;99.90
1447;DHT22;717;51.522;7.266;2023-07-20T01:12:30;23.10;99.90
1447;DHT22;717;51.522;7.266;2023-07-20T01:15:03;23.10;99.90
1447;DHT22;717;51.522;7.266;2023-07-20T01:17:35;23.10;99.90
1447;DHT22;717;51.522;7.266;2023-07-20T01:20:07;23.10;99.90
1447;DHT22;717;51.522;7.266;2023-07-20T01:23:12;23.10;99.90
1447;DHT22;717;51.522;7.266;2023-07-20T01:26:05;23.10;99.90
1447;DHT22;717;51.522;7.266;2023-07-20T01:28:54;23.10;99.90
1447;DHT22;717;51.522;7.266;2023-07-20T01:31:32;23.10;99.90
1447;DHT22;717;51.522;7.266;2023-07-20T01:34:03;23.10;99.90
1447;DHT22;717;51.522;7.266;2023-07-20T01:36:36;23.10;99.90
1447;DHT22;717;51.522;7.266;2023-07-20T01:39:08;23.10;99.90
1447;DHT22;717;51.522;7.266;2023-07-20T01:41:39;23.10;99.90
1447;DHT22;717;51.522;7.266;2023-07-20T01:44:09;23.10;99.90
1447;DHT22;717;51.522;7.266;2023-07-20T01:46:42;23.10;99.90
1447;DHT22;717;51.522;7.266;2023-07-20T01:49:12;23.10;99.90
1447;DHT22;717;51.522;7.266;2023-07-20T01:51:43;23.10;99.90
1447;DHT22;717;51.522;7.266;2023-07-20T01:54:13;23.10;99.90
1447;DHT22;717;51.522;7.266;2023-07-20T01:56:44;23.10;99.90
1447;DHT22;717;51.522;7.266;2023-07-20T01:59:14;23.10;99.90
1447;DHT22;717;51.522;7.266;2023-07-20T02:01:46;23.00;99.90
1447;DHT22;717;51.522;7.266;2023-07-20T02:04:17;23.00;99.90
1447;DHT22;717;51.522;7.266;2023-07-20T02:06:46;23.00;99.90
1447;DHT22;717;51.522;7.266;2023-07-20T02:09:16;23.00;99.90
1447;DHT22;717;51.522;7.266;2023-07-20T02:11:47;23.00;99.90
1447;DHT22;717;51.522;7.266;2023-07-20T02:14:20;23.00;99.90
1447;DHT22;717;51.522;7.266;2023-07-20T02:16:52;23.00;99.90
1447;DHT22;717;51.522;7.266;2023-07-20T02:19:27;23.00;99.90
1447;DHT22;717;51.522;7.266;2023-07-20T02:21:57;23.00;99.90
1447;DHT22;717;51.522;7.266;2023-07-20T02:24:27;23.00;99.90
1447;DHT22;717;51.522;7.266;2023-07-20T02:26:57;23.00;99.90
1447;DHT22;717;51.522;7.266;2023-07-20T02:29:27;23.00;99.90
1447;DHT22;717;51.522;7.266;2023-07-20T02:32:00;22.90;99.90
1447;DHT22;717;51.522;7.266;2023-07-20T02:34:30;22.90;99.90
1447;DHT22;717;51.522;7.266;2023-07-20T02:37:00;22.90;99.90
1447;DHT22;717;51.522;7.266;2023-07-20T02:39:30;22.80;99.90
1447;DHT22;717;51.522;7.266;2023-07-20T02:42:00;22.70;99.90
1447;DHT22;717;51.522;7.266;2023-07-20T02:44:30;22.70;99.90
1447;DHT22;717;51.522;7.266;2023-07-20T02:47:03;22.60;99.90
1447;DHT22;717;51.522;7.266;2023-07-20T02:49:34;22.60;99.90
1447;DHT22;717;51.522;7.266;2023-07-20T02:52:04;22.60;99.90
1447;DHT22;717;51.522;7.266;2023-07-20T02:54:34;22.50;99.90
1447;DHT22;717;51.522;7.266;2023-07-20T02:57:05;22.50;99.90
1447;DHT22;717;51.522;7.266;2023-07-20T02:59:35;22.50;99.90
1447;DHT22;717;51.522;7.266;2023-07-20T03:02:08;22.50;99.90
1447;DHT22;717;51.522;7.266;2023-07-20T03:04:39;22.50;99.90
1447;DHT22;717;51.522;7.266;2023-07-20T03:07:09;22.50;99.90
1447;DHT22;717;51.522;7.266;2023-07-20T03:09:39;22.50;99.90
1447;DHT22;717;51.522;7.266;2023-07-20T03:12:10;22.50;99.90
1447;DHT22;717;51.522;7.266;2023-07-20T03:14:40;22.40;99.90
1447;DHT22;717;51.522;7.266;2023-07-20T03:17:13;22.30;99.90
1447;DHT22;717;51.522;7.266;2023-07-20T03:19:44;22.30;99.90
1447;DHT22;717;51.522;7.266;2023-07-20T03:22:14;22.30;99.90
1447;DHT22;717;51.522;7.266;2023-07-20T03:24:45;22.30;99.90
1447;DHT22;717;51.522;7.266;2023-07-20T03:27:15;22.20;99.90
1447;DHT22;717;51.522;7.266;2023-07-20T03:29:45;22.20;99.90
1447;DHT22;717;51.522;7.266;2023-07-20T03:32:18;22.20;99.90
1447;DHT22;717;51.522;7.266;2023-07-20T03:34:48;22.20;99.90
1447;DHT22;717;51.522;7.266;2023-07-20T03:37:18;22.20;99.90
1447;DHT22;717;51.522;7.266;2023-07-20T03:39:48;22.20;99.90
1447;DHT22;717;51.522;7.266;2023-07-20T03:42:18;22.20;99.90
1447;DHT22;717;51.522;7.266;2023-07-20T03:44:48;22.20;99.90
1447;DHT22;717;51.522;7.266;2023-07-20T03:47:21;22.20;99.90
1447;DHT22;717;51.522;7.266;2023-07-20T03:49:51;22.20;99.90
1447;DHT22;717;51.522;7.266;2023-07-20T03:52:21;22.20;99.90
1447;DHT22;717;51.522;7.266;2023-07-20T03:54:51;22.10;99.90
1447;DHT22;717;51.522;7.266;2023-07-20T03:57:21;22.20;99.90
1447;DHT22;717;51.522;7.266;2023-07-20T03:59:51;22.20;99.90
1447;DHT22;717;51.522;7.266;2023-07-20T04:02:25;22.20;99.90
1447;DHT22;717;51.522;7.266;2023-07-20T04:04:55;22.20;99.90
1447;DHT22;717;51.522;7.266;2023-07-20T04:07:25;22.20;99.90
1447;DHT22;717;51.522;7.266;2023-07-20T04:09:55;22.20;99.90
1447;DHT22;717;51.522;7.266;2023-07-20T04:12:25;22.20;99.90
1447;DHT22;717;51.522;7.266;2023-07-20T04:14:55;22.20;99.90
1447;DHT22;717;51.522;7.266;2023-07-20T04:17:28;22.20;99.90
1447;DHT22;717;51.522;7.266;2023-07-20T04:19:58;22.20;99.90
1447;DHT22;717;51.522;7.266;2023-07-20T04:22:28;22.20;99.90
1447;DHT22;717;51.522;7.266;2023-07-20T04:24:58;22.20;99.90
1447;DHT22;717;51.522;7.266;2023-07-20T04:27:28;22.20;99.90
1447;DHT22;717;51.522;7.266;2023-07-20T04:29:59;22.20;99.90
1447;DHT22;717;51.522;7.266;2023-07-20T04:32:32;22.20;99.90
1447;DHT22;717;51.522;7.266;2023-07-20T04:35:06;22.20;99.90
1447;DHT22;717;51.522;7.266;2023-07-20T04:37:39;22.20;99.90
1447;DHT22;717;51.522;7.266;2023-07-20T04:40:16;22.20;99.90
1447;DHT22;717;51.522;7.266;2023-07-20T04:42:46;22.30;99.90
1447;DHT22;717;51.522;7.266;2023-07-20T04:45:17;22.20;99.90
1447;DHT22;717;51.522;7.266;2023-07-20T04:47:52;22.30;99.90
1447;DHT22;717;51.522;7.266;2023-07-20T04:50:22;22.30;99.90
1447;DHT22;717;51.522;7.266;2023-07-20T04:52:53;22.30;99.90
1447;DHT22;717;51.522;7.266;2023-07-20T04:55:23;22.30;99.90
1447;DHT22;717;51.522;7.266;2023-07-20T04:57:54;22.30;99.90
1447;DHT22;717;51.522;7.266;2023-07-20T05:00:25;22.30;99.90
1447;DHT22;717;51.522;7.266;2023-07-20T05:02:58;22.30;99.90
1447;DHT22;717;51.522;7.266;2023-07-20T05:05:28;22.30;99.90
1447;DHT22;717;51.522;7.266;2023-07-20T05:07:58;22.30;99.90
1447;DHT22;717;51.522;7.266;2023-07-20T05:10:28;22.40;99.90
1447;DHT22;717;51.522;7.266;2023-07-20T05:12:59;22.40;99.90
1447;DHT22;717;51.522;7.266;2023-07-20T05:15:29;22.40;99.90
1447;DHT22;717;51.522;7.266;2023-07-20T05:18:02;22.40;99.90
1447;DHT22;717;51.522;7.266;2023-07-20T05:20:32;22.50;99.90
1447;DHT22;717;51.522;7.266;2023-07-20T05:23:04;22.50;99.90
1447;DHT22;717;51.522;7.266;2023-07-20T05:25:34;22.50;99.90
1447;DHT22;717;51.522;7.266;2023-07-20T05:28:04;22.50;99.90
1447;DHT22;717;51.522;7.266;2023-07-20T05:30:34;22.50;99.90
1447;DHT22;717;51.522;7.266;2023-07-20T05:33:07;22.50;99.90
1447;DHT22;717;51.522;7.266;2023-07-20T05:35:37;22.50;99.90
1447;DHT22;717;51.522;7.266;2023-07-20T05:38:07;22.50;99.90
1447;DHT22;717;51.522;7.266;2023-07-20T05:40:37;22.50;99.90
1447;DHT22;717;51.522;7.266;2023-07-20T05:43:07;22.50;99.90
1447;DHT22;717;51.522;7.266;2023-07-20T05:45:37;22.50;99.90
1447;DHT22;717;51.522;7.266;2023-07-20T05:48:10;22.50;99.90
1447;DHT22;717;51.522;7.266;2023-07-20T05:50:42;22.50;99.90
1447;DHT22;717;51.522;7.266;2023-07-20T05:53:12;22.50;99.90
1447;DHT22;717;51.522;7.266;2023-07-20T05:55:42;22.50;99.90
1447;DHT22;717;51.522;7.266;2023-07-20T05:58:12;22.50;99.90
1447;DHT22;717;51.522;7.266;2023-07-20T06:00:42;22.50;99.90
1447;DHT22;717;51.522;7.266;2023-07-20T06:03:15;22.50;99.90
1447;DHT22;717;51.522;7.266;2023-07-20T06:05:48;22.50;99.90
1447;DHT22;717;51.522;7.266;2023-07-20T06:08:19;22.50;99.90
1447;DHT22;717;51.522;7.266;2023-07-20T06:10:50;22.50;99.90
1447;DHT22;717;51.522;7.266;2023-07-20T06:13:22;22.50;99.90
1447;DHT22;717;51.522;7.266;2023-07-20T06:15:52;22.50;99.90
1447;DHT22;717;51.522;7.266;2023-07-20T06:18:25;22.60;99.90
1447;DHT22;717;51.522;7.266;2023-07-20T06:20:55;22.50;99.90
1447;DHT22;717;51.522;7.266;2023-07-20T06:23:25;22.50;99.90
1447;DHT22;717;51.522;7.266;2023-07-20T06:25:55;22.50;99.90
1447;DHT22;717;51.522;7.266;2023-07-20T06:28:25;22.60;99.90
1447;DHT22;717;51.522;7.266;2023-07-20T06:30:59;22.60;99.90
1447;DHT22;717;51.522;7.266;2023-07-20T06:33:32;22.60;99.90
1447;DHT22;717;51.522;7.266;2023-07-20T06:36:03;22.60;99.90
1447;DHT22;717;51.522;7.266;2023-07-20T06:38:33;22.60;99.90
1447;DHT22;717;51.522;7.266;2023-07-20T06:41:03;22.60;99.90
1447;DHT22;717;51.522;7.266;2023-07-20T06:43:36;22.60;99.90
1447;DHT22;717;51.522;7.266;2023-07-20T06:46:09;22.60;99.90
1447;DHT22;717;51.522;7.266;2023-07-20T06:48:41;22.60;99.90
1447;DHT22;717;51.522;7.266;2023-07-20T06:51:14;22.50;99.90
1447;DHT22;717;51.522;7.266;2023-07-20T06:53:45;22.60;99.90
1447;DHT22;717;51.522;7.266;2023-07-20T06:56:15;22.60;99.90
1447;DHT22;717;51.522;7.266;2023-07-20T06:58:47;22.60;99.90
1447;DHT22;717;51.522;7.266;2023-07-20T07:01:17;22.60;99.90
1447;DHT22;717;51.522;7.266;2023-07-20T07:03:52;22.60;99.90
1447;DHT22;717;51.522;7.266;2023-07-20T07:06:22;22.60;99.90
1447;DHT22;717;51.522;7.266;2023-07-20T07:08:55;22.60;99.90
1447;DHT22;717;51.522;7.266;2023-07-20T07:11:25;22.60;99.90
1447;DHT22;717;51.522;7.266;2023-07-20T07:13:55;22.60;99.90
1447;DHT22;717;51.522;7.266;2023-07-20T07:16:25;22.60;99.90
1447;DHT22;717;51.522;7.266;2023-07-20T07:18:58;22.60;99.90
1447;DHT22;717;51.522;7.266;2023-07-20T07:21:28;22.60;99.90
1447;DHT22;717;51.522;7.266;2023-07-20T07:23:58;22.60;99.90
1447;DHT22;717;51.522;7.266;2023-07-20T07:26:28;22.60;99.90
1447;DHT22;717;51.522;7.266;2023-07-20T07:28:59;22.60;99.90
1447;DHT22;717;51.522;7.266;2023-07-20T07:31:29;22.60;99.90
1447;DHT22;717;51.522;7.266;2023-07-20T07:34:02;22.60;99.90
1447;DHT22;717;51.522;7.266;2023-07-20T07:36:33;22.60;99.90
1447;DHT22;717;51.522;7.266;2023-07-20T07:39:03;22.60;99.90
1447;DHT22;717;51.522;7.266;2023-07-20T07:41:36;22.70;99.90
1447;DHT22;717;51.522;7.266;2023-07-20T07:44:06;22.60;99.90
1447;DHT22;717;51.522;7.266;2023-07-20T07:46:36;22.70;99.90
1447;DHT22;717;51.522;7.266;2023-07-20T07:49:09;22.70;99.90
1447;DHT22;717;51.522;7.266;2023-07-20T07:51:39;22.70;99.90
1447;DHT22;717;51.522;7.266;2023-07-20T07:54:09;22.70;99.90
1447;DHT22;717;51.522;7.266;2023-07-20T07:56:39;22.70;99.90
1447;DHT22;717;51.522;7.266;2023-07-20T07:59:11;22.70;99.90
1447;DHT22;717;51.522;7.266;2023-07-20T08:01:41;22.70;99.90
1447;DHT22;717;51.522;7.266;2023-07-20T08:04:13;22.70;99.90
1447;DHT22;717;51.522;7.266;2023-07-20T08:06:44;22.70;99.90
1447;DHT22;717;51.522;7.266;2023-07-20T08:09:14;22.70;99.90
1447;DHT22;717;51.522;7.266;2023-07-20T08:11:44;22.70;99.90
1447;DHT22;717;51.522;7.266;2023-07-20T08:14:15;22.70;99.90
1447;DHT22;717;51.522;7.266;2023-07-20T08:16:46;22.70;99.90
1447;DHT22;717;51.522;7.266;2023-07-20T08:19:19;22.70;99.90
1447;DHT22;717;51.522;7.266;2023-07-20T08:21:51;22.80;99.90
1447;DHT22;717;51.522;7.266;2023-07-20T08:24:21;22.80;99.90
1447;DHT22;717;51.522;7.266;2023-07-20T08:26:51;22.80;99.90
1447;DHT22;717;51.522;7.266;2023-07-20T08:29:21;22.80;99.90
1447;DHT22;717;51.522;7.266;2023-07-20T08:31:51;22.80;99.90
1447;DHT22;717;51.522;7.266;2023-07-20T08:34:24;22.80;99.90
1447;DHT22;717;51.522;7.266;2023-07-20T08:36:58;22.80;99.90
1447;DHT22;717;51.522;7.266;2023-07-20T08:39:28;22.80;99.90
1447;DHT22;717;51.522;7.266;2023-07-20T08:42:00;22.80;99.90
1447;DHT22;717;51.522;7.266;2023-07-20T08:44:33;22.90;99.90
1447;DHT22;717;51.522;7.266;2023-07-20T08:47:04;22.90;99.90
1447;DHT22;717;51.522;7.266;2023-07-20T08:49:39;22.90;99.90
1447;DHT22;717;51.522;7.266;2023-07-20T08:52:10;22.90;99.90
1447;DHT22;717;51.522;7.266;2023-07-20T08:54:40;22.90;99.90
1447;DHT22;717;51.522;7.266;2023-07-20T08:57:13;22.90;99.90
1447;DHT22;717;51.522;7.266;2023-07-20T08:59:44;22.90;99.90
1447;DHT22;717;51.522;7.266;2023-07-20T09:02:16;22.90;99.90
1447;DHT22;717;51.522;7.266;2023-07-20T09:04:50;22.90;99.90
1447;DHT22;717;51.522;7.266;2023-07-20T09:07:20;22.90;99.90
1447;DHT22;717;51.522;7.266;2023-07-20T09:09:51;22.90;99.90
1447;DHT22;717;51.522;7.266;2023-07-20T09:12:21;22.90;99.90
1447;DHT22;717;51.522;7.266;2023-07-20T09:14:51;22.90;99.90
1447;DHT22;717;51.522;7.266;2023-07-20T09:17:25;23.00;99.90
1447;DHT22;717;51.522;7.266;2023-07-20T09:19:59;23.00;99.90
1447;DHT22;717;51.522;7.266;2023-07-20T09:22:32;23.00;99.90
1447;DHT22;717;51.522;7.266;2023-07-20T09:25:02;23.00;99.90
1447;DHT22;717;51.522;7.266;2023-07-20T09:27:35;23.00;99.90
1447;DHT22;717;51.522;7.266;2023-07-20T09:30:07;23.00;99.90
1447;DHT22;717;51.522;7.266;2023-07-20T09:32:45;23.00;99.90
1447;DHT22;717;51.522;7.266;2023-07-20T09:35:22;23.00;99.90
1447;DHT22;717;51.522;7.266;2023-07-20T09:37:59;23.00;99.90
1447;DHT22;717;51.522;7.266;2023-07-20T09:40:37;23.00;99.90
1447;DHT22;717;51.522;7.266;2023-07-20T09:43:11;23.00;99.90
1447;DHT22;717;51.522;7.266;2023-07-20T09:45:45;23.00;99.90
1447;DHT22;717;51.522;7.266;2023-07-20T09:48:18;23.00;99.90
1447;DHT22;717;51.522;7.266;2023-07-20T09:50:59;23.00;99.90
1447;DHT22;717;51.522;7.266;2023-07-20T09:53:30;23.00;99.90
1447;DHT22;717;51.522;7.266;2023-07-20T09:56:02;23.00;99.90
1447;DHT22;717;51.522;7.266;2023-07-20T09:58:33;23.00;99.90
1447;DHT22;717;51.522;7.266;2023-07-20T10:01:06;23.00;99.90
1447;DHT22;717;51.522;7.266;2023-07-20T10:03:37;23.00;99.90
1447;DHT22;717;51.522;7.266;2023-07-20T10:06:14;23.10;99.90
1447;DHT22;717;51.522;7.266;2023-07-20T10:08:48;23.10;99.90
1447;DHT22;717;51.522;7.266;2023-07-20T10:11:22;23.10;99.90
1447;DHT22;717;51.522;7.266;2023-07-20T10:13:54;23.10;99.90
1447;DHT22;717;51.522;7.266;2023-07-20T10:16:29;23.10;99.90
1447;DHT22;717;51.522;7.266;2023-07-20T10:19:05;23.10;99.90
1447;DHT22;717;51.522;7.266;2023-07-20T10:21:47;23.10;99.90
1447;DHT22;717;51.522;7.266;2023-07-20T10:24:25;23.20;99.90
1447;DHT22;717;51.522;7.266;2023-07-20T10:26:57;23.20;99.90
1447;DHT22;717;51.522;7.266;2023-07-20T10:29:29;23.20;99.90
1447;DHT22;717;51.522;7.266;2023-07-20T10:32:00;23.30;99.90
1447;DHT22;717;51.522;7.266;2023-07-20T10:34:30;23.30;99.90
1447;DHT22;717;51.522;7.266;2023-07-20T10:37:03;23.30;99.90
1447;DHT22;717;51.522;7.266;2023-07-20T10:39:34;23.30;99.90
1447;DHT22;717;51.522;7.266;2023-07-20T10:42:07;23.40;99.90
1447;DHT22;717;51.522;7.266;2023-07-20T10:44:37;23.40;99.90
1447;DHT22;717;51.522;7.266;2023-07-20T10:47:10;23.40;99.90
1447;DHT22;717;51.522;7.266;2023-07-20T10:49:58;23.40;99.90
1447;DHT22;717;51.522;7.266;2023-07-20T10:52:40;23.40;99.90
1447;DHT22;717;51.522;7.266;2023-07-20T10:55:14;23.40;99.90
1447;DHT22;717;51.522;7.266;2023-07-20T10:58:08;23.40;99.90
1447;DHT22;717;51.522;7.266;2023-07-20T11:00:57;23.50;99.90
1447;DHT22;717;51.522;7.266;2023-07-20T11:03:32;23.50;99.90
1447;DHT22;717;51.522;7.266;2023-07-20T11:06:31;23.50;99.90
1447;DHT22;717;51.522;7.266;2023-07-20T11:09:09;23.60;99.90
1447;DHT22;717;51.522;7.266;2023-07-20T11:11:42;23.60;99.90
1447;DHT22;717;51.522;7.266;2023-07-20T11:14:20;23.60;99.90
1447;DHT22;717;51.522;7.266;2023-07-20T11:16:53;23.60;99.90
1447;DHT22;717;51.522;7.266;2023-07-20T11:19:24;23.60;99.90
1447;DHT22;717;51.522;7.266;2023-07-20T11:21:58;23.70;99.90
1447;DHT22;717;51.522;7.266;2023-07-20T11:24:33;23.70;99.90
1447;DHT22;717;51.522;7.266;2023-07-20T11:27:04;23.70;99.90
1447;DHT22;717;51.522;7.266;2023-07-20T11:29:35;23.70;99.90
1447;DHT22;717;51.522;7.266;2023-07-20T11:32:05;23.70;99.90
1447;DHT22;717;51.522;7.266;2023-07-20T11:34:35;23.80;99.90
1447;DHT22;717;51.522;7.266;2023-07-20T11:37:05;23.80;99.90
1447;DHT22;717;51.522;7.266;2023-07-20T11:39:41;23.80;99.90
1447;DHT22;717;51.522;7.266;2023-07-20T11:42:11;23.90;99.90
1447;DHT22;717;51.522;7.266;2023-07-20T11:44:45;23.90;99.90
1447;DHT22;717;51.522;7.266;2023-07-20T11:47:15;23.90;99.90
1447;DHT22;717;51.522;7.266;2023-07-20T11:49:45;24.00;99.90
1447;DHT22;717;51.522;7.266;2023-07-20T11:52:23;23.90;99.90
1447;DHT22;717;51.522;7.266;2023-07-20T11:54:58;23.90;99.90
1447;DHT22;717;51.522;7.266;2023-07-20T11:57:29;24.00;99.90
1447;DHT22;717;51.522;7.266;2023-07-20T12:00:02;24.00;99.90
1447;DHT22;717;51.522;7.266;2023-07-20T12:02:37;24.00;99.90
1447;DHT22;717;51.522;7.266;2023-07-20T12:05:08;24.10;99.90
1447;DHT22;717;51.522;7.266;2023-07-20T12:07:38;24.10;99.90
1447;DHT22;717;51.522;7.266;2023-07-20T12:10:11;24.10;99.90
1447;DHT22;717;51.522;7.266;2023-07-20T12:12:43;24.20;99.90
1447;DHT22;717;51.522;7.266;2023-07-20T12:15:14;24.20;99.90
1447;DHT22;717;51.522;7.266;2023-07-20T12:17:45;24.20;99.90
1447;DHT22;717;51.522;7.266;2023-07-20T12:20:24;24.20;99.90
1447;DHT22;717;51.522;7.266;2023-07-20T12:22:57;24.30;99.90
1447;DHT22;717;51.522;7.266;2023-07-20T12:25:37;24.30;99.90
1447;DHT22;717;51.522;7.266;2023-07-20T12:28:09;24.30;99.90
1447;DHT22;717;51.522;7.266;2023-07-20T12:30:41;24.30;99.90
1447;DHT22;717;51.522;7.266;2023-07-20T12:33:12;24.30;99.70
1447;DHT22;717;51.522;7.266;2023-07-20T12:35:43;24.40;99.40
1447;DHT22;717;51.522;7.266;2023-07-20T12:38:13;24.40;98.90
1447;DHT22;717;51.522;7.266;2023-07-20T12:40:46;24.40;99.10
1447;DHT22;717;51.522;7.266;2023-07-20T12:43:16;24.40;99.30
1447;DHT22;717;51.522;7.266;2023-07-20T12:45:46;24.50;99.30
1447;DHT22;717;51.522;7.266;2023-07-20T12:48:16;24.50;99.40
1447;DHT22;717;51.522;7.266;2023-07-20T12:50:47;24.50;99.30
1447;DHT22;717;51.522;7.266;2023-07-20T12:53:17;24.60;99.20
1447;DHT22;717;51.522;7.266;2023-07-20T12:55:49;24.60;99.10
1447;DHT22;717;51.522;7.266;2023-07-20T12:58:19;24.60;98.70
1447;DHT22;717;51.522;7.266;2023-07-20T13:00:50;24.70;98.50
1447;DHT22;717;51.522;7.266;2023-07-20T13:03:20;24.70;98.10
1447;DHT22;717;51.522;7.266;2023-07-20T13:05:53;24.70;97.40
1447;DHT22;717;51.522;7.266;2023-07-20T13:08:28;24.70;97.30
1447;DHT22;717;51.522;7.266;2023-07-20T13:11:00;24.80;97.10
1447;DHT22;717;51.522;7.266;2023-07-20T13:13:32;24.80;96.80
1447;DHT22;717;51.522;7.266;2023-07-20T13:16:03;24.80;97.00
1447;DHT22;717;51.522;7.266;2023-07-20T13:18:33;24.80;97.10
1447;DHT22;717;51.522;7.266;2023-07-20T13:21:03;24.80;97.40
1447;DHT22;717;51.522;7.266;2023-07-20T13:23:38;24.90;97.50
1447;DHT22;717;51.522;7.266;2023-07-20T13:26:11;24.90;97.40
1447;DHT22;717;51.522;7.266;2023-07-20T13:28:41;25.00;97.00
1447;DHT22;717;51.522;7.266;2023-07-20T13:31:11;25.00;96.50
1447;DHT22;717;51.522;7.266;2023-07-20T13:33:41;25.00;96.50
1447;DHT22;717;51.522;7.266;2023-07-20T13:36:23;25.00;96.70
1447;DHT22;717;51.522;7.266;2023-07-20T13:38:53;25.00;96.80
1447;DHT22;717;51.522;7.266;2023-07-20T13:41:25;25.10;96.80
1447;DHT22;717;51.522;7.266;2023-07-20T13:43:56;25.10;96.90
1447;DHT22;717;51.522;7.266;2023-07-20T13:46:26;25.10;96.80
1447;DHT22;717;51.522;7.266;2023-07-20T13:48:59;25.10;96.70
1447;DHT22;717;51.522;7.266;2023-07-20T13:51:30;25.10;96.80
1447;DHT22;717;51.522;7.266;2023-07-20T13:54:00;25.20;96.80
1447;DHT22;717;51.522;7.266;2023-07-20T13:56:36;25.20;96.80
1447;DHT22;717;51.522;7.266;2023-07-20T13:59:08;25.20;96.70
1447;DHT22;717;51.522;7.266;2023-07-20T14:01:41;25.20;96.70
1447;DHT22;717;51.522;7.266;2023-07-20T14:04:11;25.30;96.30
1447;DHT22;717;51.522;7.266;2023-07-20T14:06:42;25.30;96.30
1447;DHT22;717;51.522;7.266;2023-07-20T14:09:12;25.30;96.40
1447;DHT22;717;51.522;7.266;2023-07-20T14:11:45;25.30;96.40
1447;DHT22;717;51.522;7.266;2023-07-20T14:14:18;25.30;96.10
1447;DHT22;717;51.522;7.266;2023-07-20T14:16:48;25.30;96.10
1447;DHT22;717;51.522;7.266;2023-07-20T14:19:18;25.30;96.00
1447;DHT22;717;51.522;7.266;2023-07-20T14:21:51;25.30;96.10
1447;DHT22;717;51.522;7.266;2023-07-20T14:24:22;25.30;95.60
1447;DHT22;717;51.522;7.266;2023-07-20T14:26:54;25.30;95.40
1447;DHT22;717;51.522;7.266;2023-07-20T14:29:24;25.30;95.70
1447;DHT22;717;51.522;7.266;2023-07-20T14:31:54;25.40;95.40
1447;DHT22;717;51.522;7.266;2023-07-20T14:34:24;25.40;95.20
1447;DHT22;717;51.522;7.266;2023-07-20T14:36:54;25.40;95.00
1447;DHT22;717;51.522;7.266;2023-07-20T14:39:24;25.40;95.00
1447;DHT22;717;51.522;7.266;2023-07-20T14:41:57;25.40;95.10
1447;DHT22;717;51.522;7.266;2023-07-20T14:44:27;25.40;94.90
1447;DHT22;717;51.522;7.266;2023-07-20T14:46:57;25.40;94.80
1447;DHT22;717;51.522;7.266;2023-07-20T14:49:40;25.40;94.90
1447;DHT22;717;51.522;7.266;2023-07-20T14:52:10;25.40;94.70
1447;DHT22;717;51.522;7.266;2023-07-20T14:54:42;25.40;94.50
1447;DHT22;717;51.522;7.266;2023-07-20T14:57:15;25.40;94.30
1447;DHT22;717;51.522;7.266;2023-07-20T14:59:45;25.40;94.50
1447;DHT22;717;51.522;7.266;2023-07-20T15:02:16;25.40;94.60
1447;DHT22;717;51.522;7.266;2023-07-20T15:04:46;25.40;94.50
1447;DHT22;717;51.522;7.266;2023-07-20T15:07:19;25.40;94.30
1447;DHT22;717;51.522;7.266;2023-07-20T15:09:49;25.40;94.20
1447;DHT22;717;51.522;7.266;2023-07-20T15:12:22;25.40;93.90
1447;DHT22;717;51.522;7.266;2023-07-20T15:15:03;25.40;93.60
1447;DHT22;717;51.522;7.266;2023-07-20T15:17:35;25.40;93.90
1447;DHT22;717;51.522;7.266;2023-07-20T15:20:07;25.40;93.80
1447;DHT22;717;51.522;7.266;2023-07-20T15:22:38;25.40;93.90
1447;DHT22;717;51.522;7.266;2023-07-20T15:25:09;25.50;94.10
1447;DHT22;717;51.522;7.266;2023-07-20T15:27:43;25.50;94.10
1447;DHT22;717;51.522;7.266;2023-07-20T15:30:17;25.50;94.20
1447;DHT22;717;51.522;7.266;2023-07-20T15:32:50;25.50;94.50
1447;DHT22;717;51.522;7.266;2023-07-20T15:35:23;25.60;94.40
1447;DHT22;717;51.522;7.266;2023-07-20T15:37:53;25.60;94.10
1447;DHT22;717;51.522;7.266;2023-07-20T15:40:23;25.60;93.90
1447;DHT22;717;51.522;7.266;2023-07-20T15:42:55;25.70;93.80
1447;DHT22;717;51.522;7.266;2023-07-20T15:45:28;25.70;93.80
1447;DHT22;717;51.522;7.266;2023-07-20T15:47:59;25.70;94.10
1447;DHT22;717;51.522;7.266;2023-07-20T15:50:28;25.70;94.10
1447;DHT22;717;51.522;7.266;2023-07-20T15:52:59;25.70;93.80
1447;DHT22;717;51.522;7.266;2023-07-20T15:55:29;25.70;94.00
1447;DHT22;717;51.522;7.266;2023-07-20T15:58:01;25.70;93.50
1447;DHT22;717;51.522;7.266;2023-07-20T16:00:31;25.70;93.50
1447;DHT22;717;51.522;7.266;2023-07-20T16:03:02;25.70;93.50
1447;DHT22;717;51.522;7.266;2023-07-20T16:05:33;25.80;93.90
1447;DHT22;717;51.522;7.266;2023-07-20T16:08:04;25.80;93.60
1447;DHT22;717;51.522;7.266;2023-07-20T16:10:35;25.80;93.50
1447;DHT22;717;51.522;7.266;2023-07-20T16:13:08;25.80;93.50
1447;DHT22;717;51.522;7.266;2023-07-20T16:15:39;25.90;93.60
1447;DHT22;717;51.522;7.266;2023-07-20T16:18:12;25.90;93.60
1447;DHT22;717;51.522;7.266;2023-07-20T16:20:42;25.90;93.80
1447;DHT22;717;51.522;7.266;2023-07-20T16:23:12;25.90;93.90
1447;DHT22;717;51.522;7.266;2023-07-20T16:25:45;25.90;93.80
1447;DHT22;717;51.522;7.266;2023-07-20T16:28:17;25.90;93.70
1447;DHT22;717;51.522;7.266;2023-07-20T16:30:47;25.90;93.40
1447;DHT22;717;51.522;7.266;2023-07-20T16:33:17;26.00;93.70
1447;DHT22;717;51.522;7.266;2023-07-20T16:35:47;25.90;94.20
1447;DHT22;717;51.522;7.266;2023-07-20T16:38:17;25.90;94.20
1447;DHT22;717;51.522;7.266;2023-07-20T16:40:47;26.00;93.90
1447;DHT22;717;51.522;7.266;2023-07-20T16:43:23;26.00;93.80
1447;DHT22;717;51.522;7.266;2023-07-20T16:45:59;26.00;93.90
1447;DHT22;717;51.522;7.266;2023-07-20T16:48:49;26.00;93.80
1447;DHT22;717;51.522;7.266;2023-07-20T16:51:21;26.00;93.60